createdAt,value
2018-07-13T00:00:28.839Z,15.60
2018-07-13T00:02:58.017Z,18.63
2018-07-13T00:05:27.249Z,21.50
2018-07-13T00:07:56.473Z,19.33
2018-07-13T00:10:25.689Z,11.30
2018-07-13T00:12:54.881Z,14.40
2018-07-13T00:15:24.107Z,10.63
2018-07-13T00:17:53.304Z,11.20
2018-07-13T00:20:22.510Z,13.80
2018-07-13T00:22:51.989Z,17.10
2018-07-13T00:25:22.174Z,13.63
2018-07-13T00:27:51.538Z,9.13
2018-07-13T00:30:20.737Z,17.00
2018-07-13T00:32:49.934Z,9.67
2018-07-13T00:35:19.140Z,10.87
2018-07-13T00:37:48.345Z,10.43
2018-07-13T00:40:18.565Z,11.67
2018-07-13T00:42:47.769Z,12.40
2018-07-13T00:45:16.983Z,12.13
2018-07-13T00:47:46.271Z,11.50
2018-07-13T00:50:15.537Z,17.20
2018-07-13T00:52:44.804Z,13.80
2018-07-13T00:55:14.038Z,12.20
2018-07-13T00:57:43.300Z,11.77
2018-07-13T01:00:12.564Z,12.33
2018-07-13T01:02:41.813Z,13.30
2018-07-13T01:05:11.041Z,20.60
2018-07-13T01:07:40.260Z,13.33
2018-07-13T01:10:09.620Z,13.87
2018-07-13T01:12:38.841Z,14.80
2018-07-13T01:15:08.164Z,18.97
2018-07-13T01:17:37.387Z,15.20
2018-07-13T01:20:06.636Z,21.00
2018-07-13T01:22:35.886Z,21.00
2018-07-13T01:25:05.214Z,21.70
2018-07-13T01:27:34.511Z,17.17
2018-07-13T01:30:03.835Z,21.87
2018-07-13T01:32:33.085Z,16.43
2018-07-13T01:35:02.315Z,20.00
2018-07-13T01:37:31.567Z,18.10
2018-07-13T01:40:00.804Z,17.80
2018-07-13T01:42:30.030Z,15.60
2018-07-13T01:44:59.298Z,15.73
2018-07-13T01:47:28.544Z,15.27
2018-07-13T01:49:57.776Z,17.13
2018-07-13T01:52:27.055Z,16.07
2018-07-13T01:54:56.400Z,16.00
2018-07-13T01:57:25.662Z,16.87
2018-07-13T01:59:54.915Z,17.77
2018-07-13T02:02:24.165Z,14.93
2018-07-13T02:04:53.385Z,21.77
2018-07-13T02:07:22.609Z,19.67
2018-07-13T02:09:53.406Z,15.13
2018-07-13T02:12:22.713Z,17.97
2018-07-13T02:14:52.416Z,20.13
2018-07-13T02:17:22.081Z,16.97
2018-07-13T02:19:51.274Z,18.57
2018-07-13T02:22:20.573Z,15.90
2018-07-13T02:24:49.840Z,14.70
2018-07-13T02:27:19.071Z,19.33
2018-07-13T02:29:48.275Z,17.23
2018-07-13T02:32:17.614Z,19.27
2018-07-13T02:34:46.890Z,15.60
2018-07-13T02:37:16.129Z,18.60
2018-07-13T02:39:45.344Z,21.97
2018-07-13T02:42:14.596Z,19.83
2018-07-13T02:44:43.820Z,15.90
2018-07-13T02:47:13.091Z,20.10
2018-07-13T02:49:42.294Z,18.13
2018-07-13T02:52:11.542Z,19.70
2018-07-13T02:54:40.940Z,25.40
2018-07-13T02:57:10.194Z,24.97
2018-07-13T02:59:39.437Z,25.60
2018-07-13T03:02:08.642Z,29.33
2018-07-13T03:04:37.869Z,28.17
2018-07-13T03:07:07.070Z,25.73
2018-07-13T03:09:36.322Z,35.37
2018-07-13T03:12:05.576Z,28.53
2018-07-13T03:14:34.849Z,32.00
2018-07-13T03:17:04.100Z,31.87
2018-07-13T03:19:34.233Z,26.90
2018-07-13T03:22:03.685Z,36.40
2018-07-13T03:24:33.394Z,29.43
2018-07-13T03:27:02.802Z,33.70
2018-07-13T03:29:32.217Z,32.97
2018-07-13T03:32:01.545Z,30.37
2018-07-13T03:34:30.969Z,30.07
2018-07-13T03:37:00.630Z,38.57
2018-07-13T03:39:29.825Z,29.77
2018-07-13T03:41:59.086Z,30.43
2018-07-13T03:44:28.295Z,33.27
2018-07-13T03:46:57.608Z,37.60
2018-07-13T03:49:26.824Z,34.80
2018-07-13T03:51:56.049Z,37.83
2018-07-13T03:54:25.349Z,37.80
2018-07-13T03:56:54.608Z,37.37
2018-07-13T03:59:23.869Z,39.40
2018-07-13T04:01:53.107Z,37.60
2018-07-13T04:04:22.322Z,37.57
2018-07-13T04:06:51.732Z,47.50
2018-07-13T04:09:20.920Z,46.73
2018-07-13T04:11:50.597Z,45.53
2018-07-13T04:14:19.784Z,43.13
2018-07-13T04:16:49.975Z,35.90
2018-07-13T04:19:19.190Z,42.63
2018-07-13T04:21:48.437Z,40.43
2018-07-13T04:24:17.684Z,36.07
2018-07-13T04:26:47.617Z,39.67
2018-07-13T04:29:16.889Z,40.73
2018-07-13T04:31:46.167Z,37.70
2018-07-13T04:34:15.369Z,34.67
2018-07-13T04:36:44.604Z,38.73
2018-07-13T04:39:14.148Z,40.63
2018-07-13T04:41:43.588Z,38.70
2018-07-13T04:44:12.777Z,37.97
2018-07-13T04:46:42.022Z,38.77
2018-07-13T04:49:11.239Z,43.00
2018-07-13T04:51:40.504Z,37.87
2018-07-13T04:54:09.808Z,38.40
2018-07-13T04:56:39.096Z,34.90
2018-07-13T04:59:08.340Z,41.70
2018-07-13T05:01:37.607Z,33.20
2018-07-13T05:04:06.807Z,34.70
2018-07-13T05:06:36.097Z,34.13
2018-07-13T05:09:07.025Z,36.50
2018-07-13T05:11:36.402Z,30.53
2018-07-13T05:14:05.786Z,27.33
2018-07-13T05:16:35.320Z,32.73
2018-07-13T05:19:04.574Z,29.73
2018-07-13T05:21:34.118Z,31.77
2018-07-13T05:24:03.364Z,29.27
2018-07-13T05:26:32.642Z,29.57
2018-07-13T05:29:01.875Z,17.53
2018-07-13T05:31:31.104Z,19.60
2018-07-13T05:34:00.298Z,20.87
2018-07-13T05:36:29.625Z,16.40
2018-07-13T05:38:58.831Z,12.73
2018-07-13T05:41:28.039Z,13.20
2018-07-13T05:43:57.289Z,12.10
2018-07-13T05:46:26.516Z,10.37
2018-07-13T05:48:55.760Z,13.13
2018-07-13T05:51:24.952Z,9.47
2018-07-13T05:53:54.161Z,11.87
2018-07-13T05:56:23.542Z,8.17
2018-07-13T05:58:52.748Z,9.33
2018-07-13T06:01:22.043Z,8.53
2018-07-13T06:03:51.267Z,6.80
2018-07-13T06:06:20.456Z,6.33
2018-07-13T06:08:49.674Z,6.07
2018-07-13T06:11:18.886Z,8.23
2018-07-13T06:13:48.088Z,4.43
2018-07-13T06:16:17.292Z,4.40
2018-07-13T06:18:46.497Z,7.17
2018-07-13T06:21:15.717Z,4.30
2018-07-13T06:23:44.951Z,5.93
2018-07-13T06:26:14.159Z,6.33
2018-07-13T06:28:43.328Z,3.27
2018-07-13T06:31:12.769Z,4.13
2018-07-13T06:33:41.937Z,4.37
2018-07-13T06:36:11.153Z,2.83
2018-07-13T06:38:40.409Z,2.97
2018-07-13T06:41:09.685Z,5.00
2018-07-13T06:43:38.935Z,3.90
2018-07-13T06:46:08.324Z,2.23
2018-07-13T06:48:37.531Z,4.20
2018-07-13T06:51:06.770Z,3.47
2018-07-13T06:53:36.022Z,2.83
2018-07-13T06:56:05.252Z,3.13
2018-07-13T06:58:45.519Z,5.23
2018-07-13T07:01:14.761Z,5.07
2018-07-13T07:04:46.408Z,2.50
2018-07-13T07:07:17.965Z,3.77
2018-07-13T07:10:03.605Z,2.97
2018-07-13T07:12:51.933Z,3.07
2018-07-13T07:15:21.466Z,3.87
2018-07-13T07:17:50.747Z,2.27
2018-07-13T07:20:19.930Z,3.33
2018-07-13T07:22:49.156Z,4.70
2018-07-13T07:25:18.696Z,5.60
2018-07-13T07:27:47.944Z,3.37
2018-07-13T07:30:17.149Z,4.77
2018-07-13T07:32:46.344Z,2.67
2018-07-13T07:35:15.583Z,6.33
2018-07-13T07:37:44.757Z,3.43
2018-07-13T07:40:14.040Z,2.57
2018-07-13T07:42:43.275Z,3.73
2018-07-13T07:45:12.506Z,2.97
2018-07-13T07:47:41.685Z,3.87
2018-07-13T07:50:10.907Z,4.10
2018-07-13T07:52:40.109Z,2.83
2018-07-13T07:55:09.373Z,2.40
2018-07-13T07:57:38.702Z,2.87
2018-07-13T08:00:07.913Z,3.00
2018-07-13T08:02:37.127Z,3.17
2018-07-13T08:05:06.459Z,9.00
2018-07-13T08:07:35.842Z,5.40
2018-07-13T08:10:05.081Z,3.83
2018-07-13T08:12:34.298Z,3.33
2018-07-13T08:15:03.508Z,3.47
2018-07-13T08:17:32.725Z,3.23
2018-07-13T08:20:02.065Z,4.03
2018-07-13T08:22:33.520Z,3.47
2018-07-13T08:25:04.981Z,4.00
2018-07-13T08:27:41.405Z,3.53
2018-07-13T08:30:16.496Z,5.73
2018-07-13T08:32:46.152Z,4.07
2018-07-13T08:35:15.570Z,2.90
2018-07-13T08:38:47.468Z,3.40
2018-07-13T08:41:16.732Z,3.47
2018-07-13T08:43:45.981Z,2.70
2018-07-13T08:46:15.228Z,2.73
2018-07-13T08:48:44.462Z,2.77
2018-07-13T08:51:13.799Z,2.47
2018-07-13T08:53:43.138Z,2.57
2018-07-13T08:56:12.409Z,3.80
2018-07-13T08:58:41.664Z,6.10
2018-07-13T09:01:10.921Z,3.40
2018-07-13T09:03:40.177Z,4.30
2018-07-13T09:06:09.450Z,2.80
2018-07-13T09:08:38.725Z,2.40
2018-07-13T09:11:08.217Z,3.10
2018-07-13T09:13:37.477Z,5.10
2018-07-13T09:16:06.699Z,2.43
2018-07-13T09:18:35.890Z,4.87
2018-07-13T09:21:05.112Z,3.03
2018-07-13T09:23:34.344Z,2.70
2018-07-13T09:26:03.623Z,5.00
2018-07-13T09:28:32.857Z,4.13
2018-07-13T09:31:02.148Z,3.30
2018-07-13T09:33:31.458Z,2.83
2018-07-13T09:36:00.798Z,2.80
2018-07-13T09:38:29.999Z,2.93
2018-07-13T09:40:59.240Z,2.80
2018-07-13T09:43:28.460Z,3.73
2018-07-13T09:45:57.721Z,2.50
2018-07-13T09:48:27.110Z,2.50
2018-07-13T09:50:56.342Z,2.70
2018-07-13T09:53:25.573Z,2.70
2018-07-13T09:55:54.811Z,2.40
2018-07-13T09:58:29.473Z,3.03
2018-07-13T10:01:03.918Z,2.90
2018-07-13T10:03:33.149Z,3.80
2018-07-13T10:06:02.572Z,3.37
2018-07-13T10:08:32.500Z,2.70
2018-07-13T10:11:01.727Z,3.57
2018-07-13T10:13:31.380Z,6.33
2018-07-13T10:16:00.556Z,3.93
2018-07-13T10:18:29.754Z,3.30
2018-07-13T10:20:59.611Z,3.47
2018-07-13T10:23:29.337Z,2.27
2018-07-13T10:26:02.913Z,3.13
2018-07-13T10:28:32.894Z,3.83
2018-07-13T10:31:02.285Z,4.10
2018-07-13T10:33:31.588Z,4.63
2018-07-13T10:36:01.895Z,3.00
2018-07-13T10:38:31.186Z,2.40
2018-07-13T10:41:00.503Z,4.20
2018-07-13T10:43:29.755Z,2.60
2018-07-13T10:45:58.956Z,2.60
2018-07-13T10:48:28.332Z,4.33
2018-07-13T10:50:57.549Z,2.77
2018-07-13T10:53:26.788Z,6.30
2018-07-13T10:55:56.154Z,2.90
2018-07-13T10:58:25.332Z,2.53
2018-07-13T11:00:54.569Z,3.20
2018-07-13T11:03:23.832Z,4.40
2018-07-13T11:05:53.013Z,2.40
2018-07-13T11:08:22.328Z,2.50
2018-07-13T11:10:51.530Z,4.50
2018-07-13T11:13:20.809Z,2.13
2018-07-13T11:15:50.327Z,7.00
2018-07-13T11:18:19.582Z,3.77
2018-07-13T11:20:48.818Z,2.73
2018-07-13T11:23:18.055Z,3.23
2018-07-13T11:25:47.286Z,2.13
2018-07-13T11:28:16.569Z,2.80
2018-07-13T11:30:45.766Z,4.00
2018-07-13T11:33:14.989Z,3.40
2018-07-13T11:35:44.247Z,3.10
2018-07-13T11:38:13.480Z,2.83
2018-07-13T11:40:42.678Z,2.63
2018-07-13T11:43:11.951Z,2.90
2018-07-13T11:45:41.194Z,2.77
2018-07-13T11:48:10.475Z,2.93
2018-07-13T11:50:39.723Z,3.60
2018-07-13T11:53:17.279Z,3.30
2018-07-13T11:55:46.486Z,5.03
2018-07-13T11:58:16.563Z,2.90
2018-07-13T12:00:46.016Z,4.47
2018-07-13T12:03:15.230Z,4.13
2018-07-13T12:05:44.504Z,3.70
2018-07-13T12:08:13.769Z,3.00
2018-07-13T12:10:43.126Z,3.10
2018-07-13T12:13:12.347Z,3.87
2018-07-13T12:15:41.824Z,2.63
2018-07-13T12:20:46.264Z,5.40
2018-07-13T12:23:15.529Z,3.33
2018-07-13T12:25:44.777Z,5.00
2018-07-13T12:28:13.987Z,5.70
2018-07-13T12:30:43.203Z,4.40
2018-07-13T12:33:12.412Z,3.40
2018-07-13T12:35:41.618Z,3.20
2018-07-13T12:38:10.987Z,6.43
2018-07-13T12:40:40.274Z,4.07
2018-07-13T12:43:09.574Z,7.60
2018-07-13T12:45:38.837Z,4.00
2018-07-13T12:48:08.034Z,3.80
2018-07-13T12:50:37.360Z,5.30
2018-07-13T12:53:06.888Z,4.40
2018-07-13T12:55:36.127Z,3.33
2018-07-13T12:58:05.389Z,3.63
2018-07-13T13:00:34.594Z,3.50
2018-07-13T13:03:03.812Z,6.20
2018-07-13T13:05:33.139Z,3.50
2018-07-13T13:08:02.330Z,6.07
2018-07-13T13:10:31.537Z,3.00
2018-07-13T13:13:00.763Z,5.47
2018-07-13T13:15:29.974Z,3.80
2018-07-13T13:17:59.225Z,4.07
2018-07-13T13:20:28.457Z,3.50
2018-07-13T13:22:57.664Z,3.27
2018-07-13T13:25:26.837Z,6.63
2018-07-13T13:27:56.036Z,4.10
2018-07-13T13:30:25.214Z,4.20
2018-07-13T13:32:54.398Z,5.70
2018-07-13T13:35:23.777Z,3.90
2018-07-13T13:37:52.969Z,3.57
2018-07-13T13:40:22.225Z,2.87
2018-07-13T13:42:51.421Z,3.73
2018-07-13T13:45:20.674Z,4.03
2018-07-13T13:47:50.090Z,3.87
2018-07-13T13:50:19.256Z,3.20
2018-07-13T13:52:48.449Z,6.50
2018-07-13T13:55:17.847Z,3.70
2018-07-13T13:57:47.099Z,4.83
2018-07-13T14:00:16.295Z,3.70
2018-07-13T14:02:45.553Z,9.27
2018-07-13T14:05:14.876Z,6.40
2018-07-13T14:07:44.039Z,4.87
2018-07-13T14:10:13.259Z,5.07
2018-07-13T14:12:42.473Z,5.40
2018-07-13T14:15:11.701Z,5.67
2018-07-13T14:17:40.975Z,9.50
2018-07-13T14:20:10.241Z,2.40
2018-07-13T14:22:39.456Z,3.07
2018-07-13T14:25:08.733Z,4.70
2018-07-13T14:27:37.964Z,2.87
2018-07-13T14:30:07.519Z,3.50
2018-07-13T14:32:37.111Z,3.73
2018-07-13T14:35:06.449Z,6.00
2018-07-13T14:37:35.706Z,3.23
2018-07-13T14:40:04.964Z,2.90
2018-07-13T14:42:35.313Z,2.57
2018-07-13T14:45:04.689Z,3.37
2018-07-13T14:47:33.929Z,3.90
2018-07-13T14:50:03.192Z,5.53
2018-07-13T14:52:32.437Z,4.33
2018-07-13T14:55:01.722Z,4.33
2018-07-13T14:57:30.934Z,4.63
2018-07-13T15:00:00.181Z,6.30
2018-07-13T15:02:29.394Z,6.23
2018-07-13T15:04:58.677Z,4.70
2018-07-13T15:07:27.857Z,2.87
2018-07-13T15:09:57.081Z,4.00
2018-07-13T15:12:27.351Z,3.37
2018-07-13T15:14:56.722Z,12.17
2018-07-13T15:17:25.982Z,13.20
2018-07-13T15:19:55.150Z,7.60
2018-07-13T15:22:24.418Z,7.30
2018-07-13T15:24:53.608Z,6.90
2018-07-13T15:27:22.799Z,4.83
2018-07-13T15:29:52.016Z,4.53
2018-07-13T15:32:21.306Z,4.70
2018-07-13T15:34:50.554Z,7.27
2018-07-13T15:37:19.840Z,4.17
2018-07-13T15:39:49.072Z,5.20
2018-07-13T15:42:18.360Z,5.37
2018-07-13T15:44:47.618Z,8.50
2018-07-13T15:47:16.855Z,7.83
2018-07-13T15:49:46.013Z,5.03
2018-07-13T15:52:15.268Z,8.00
2018-07-13T15:54:45.450Z,6.50
2018-07-13T15:57:14.637Z,5.63
2018-07-13T15:59:43.844Z,6.33
2018-07-13T16:02:13.070Z,13.43
2018-07-13T16:04:42.284Z,8.77
2018-07-13T16:07:12.497Z,13.37
2018-07-13T16:09:41.686Z,13.10
2018-07-13T16:12:10.902Z,6.13
2018-07-13T16:14:40.529Z,10.07
2018-07-13T16:17:09.765Z,9.17
2018-07-13T16:19:39.043Z,12.17
2018-07-13T16:22:08.404Z,9.40
2018-07-13T16:24:37.596Z,6.90
2018-07-13T16:27:06.799Z,11.33
2018-07-13T16:29:36.007Z,8.30
2018-07-13T16:32:05.288Z,9.43
2018-07-13T16:34:34.474Z,7.10
2018-07-13T16:37:03.705Z,7.00
2018-07-13T16:39:32.909Z,5.97
2018-07-13T16:42:02.725Z,6.70
2018-07-13T16:44:32.180Z,6.90
2018-07-13T16:47:01.567Z,8.83
2018-07-13T16:49:30.854Z,10.83
2018-07-13T16:52:00.231Z,7.63
2018-07-13T16:54:29.669Z,9.30
2018-07-13T16:56:59.246Z,9.60
2018-07-13T16:59:28.720Z,6.20
2018-07-13T17:01:58.067Z,10.10
2018-07-13T17:04:27.299Z,9.40
2018-07-13T17:06:56.501Z,14.13
2018-07-13T17:09:25.682Z,8.57
2018-07-13T17:11:54.882Z,9.07
2018-07-13T17:14:24.069Z,8.47
2018-07-13T17:16:53.277Z,9.87
2018-07-13T17:19:22.512Z,6.97
2018-07-13T17:21:51.683Z,9.17
2018-07-13T17:24:20.982Z,7.70
2018-07-13T17:26:50.253Z,12.33
2018-07-13T17:29:19.477Z,10.20
2018-07-13T17:31:48.681Z,11.10
2018-07-13T17:34:17.971Z,7.10
2018-07-13T17:36:47.272Z,11.57
2018-07-13T17:39:16.622Z,7.10
2018-07-13T17:41:45.810Z,9.03
2018-07-13T17:44:14.982Z,8.53
2018-07-13T17:46:44.174Z,9.00
2018-07-13T17:49:13.475Z,15.43
2018-07-13T17:51:42.702Z,8.13
2018-07-13T17:54:11.905Z,7.57
2018-07-13T17:56:41.106Z,6.50
2018-07-13T17:59:10.349Z,7.70
2018-07-13T18:01:39.628Z,7.90
2018-07-13T18:04:08.903Z,7.20
2018-07-13T18:06:38.135Z,8.43
2018-07-13T18:09:07.709Z,8.00
2018-07-13T18:11:37.059Z,8.70
2018-07-13T18:14:06.278Z,10.53
2018-07-13T18:16:35.461Z,7.60
2018-07-13T18:19:04.653Z,6.37
2018-07-13T18:21:33.862Z,6.87
2018-07-13T18:24:03.046Z,6.47
2018-07-13T18:26:32.221Z,6.43
2018-07-13T18:29:01.396Z,7.63
2018-07-13T18:31:30.610Z,7.70
2018-07-13T18:33:59.849Z,10.10
2018-07-13T18:36:29.037Z,12.03
2018-07-13T18:38:58.210Z,8.20
2018-07-13T18:41:27.405Z,8.63
2018-07-13T18:43:56.617Z,9.33
2018-07-13T18:46:26.242Z,8.90
2018-07-13T18:48:55.447Z,7.53
2018-07-13T18:51:24.640Z,10.27
2018-07-13T18:53:53.801Z,9.63
2018-07-13T18:56:22.998Z,10.57
2018-07-13T18:58:52.175Z,12.37
2018-07-13T19:01:21.349Z,11.03
2018-07-13T19:03:50.553Z,13.60
2018-07-13T19:06:19.837Z,16.63
2018-07-13T19:08:49.182Z,9.93
2018-07-13T19:11:18.367Z,12.10
2018-07-13T19:13:47.534Z,19.33
2018-07-13T19:16:16.709Z,11.03
2018-07-13T19:18:46.103Z,14.03
2018-07-13T19:21:15.297Z,18.33
2018-07-13T19:23:44.470Z,23.07
2018-07-13T19:26:13.645Z,13.00
2018-07-13T19:28:42.829Z,14.20
2018-07-13T19:31:12.070Z,20.40
2018-07-13T19:33:41.261Z,16.90
2018-07-13T19:36:10.561Z,19.13
2018-07-13T19:38:39.782Z,11.47
2018-07-13T19:41:08.958Z,22.13
2018-07-13T19:43:38.153Z,24.73
2018-07-13T19:46:07.377Z,21.77
2018-07-13T19:48:36.635Z,20.97
2018-07-13T19:51:05.853Z,21.17
2018-07-13T19:53:35.057Z,31.37
2018-07-13T19:56:04.233Z,17.80
2018-07-13T19:58:33.405Z,17.00
2018-07-13T20:01:02.613Z,23.23
2018-07-13T20:03:31.789Z,16.37
2018-07-13T20:06:02.029Z,16.17
2018-07-13T20:08:31.215Z,22.03
2018-07-13T20:11:00.403Z,18.87
2018-07-13T20:13:29.609Z,14.37
2018-07-13T20:15:58.811Z,29.20
2018-07-13T20:18:27.990Z,22.70
2018-07-13T20:20:57.245Z,20.27
2018-07-13T20:23:26.675Z,14.33
2018-07-13T20:25:55.856Z,18.53
2018-07-13T20:28:25.017Z,18.67
2018-07-13T20:30:54.205Z,19.27
2018-07-13T20:33:23.444Z,19.90
2018-07-13T20:35:52.597Z,22.23
2018-07-13T20:38:21.788Z,20.87
2018-07-13T20:40:50.976Z,22.33
2018-07-13T20:43:20.146Z,27.03
2018-07-13T20:45:49.326Z,26.40
2018-07-13T20:48:18.510Z,31.53
2018-07-13T20:50:47.705Z,34.60
2018-07-13T20:53:17.049Z,33.10
2018-07-13T20:55:46.248Z,26.97
2018-07-13T20:58:15.425Z,28.20
2018-07-13T21:00:44.610Z,34.83
2018-07-13T21:03:13.771Z,33.50
2018-07-13T21:05:43.202Z,26.50
2018-07-13T21:08:12.397Z,23.63
2018-07-13T21:10:41.572Z,19.67
2018-07-13T21:13:11.161Z,19.30
2018-07-13T21:15:40.448Z,12.87
2018-07-13T21:18:09.640Z,12.53
2018-07-13T21:20:38.886Z,16.10
2018-07-13T21:23:08.135Z,11.93
2018-07-13T21:25:37.304Z,19.93
2018-07-13T21:28:06.663Z,15.10
2018-07-13T21:30:35.892Z,15.43
2018-07-13T21:33:05.050Z,12.43
2018-07-13T21:35:34.222Z,39.30
2018-07-13T21:38:03.479Z,58.40
2018-07-13T21:40:32.869Z,63.23
2018-07-13T21:43:02.053Z,32.87
2018-07-13T21:45:31.237Z,32.03
2018-07-13T21:48:00.408Z,25.23
2018-07-13T21:50:29.605Z,21.90
2018-07-13T21:52:58.808Z,17.90
2018-07-13T21:55:28.015Z,24.00
2018-07-13T21:57:57.211Z,15.47
2018-07-13T22:00:26.427Z,14.70
2018-07-13T22:02:55.597Z,16.40
2018-07-13T22:05:24.765Z,23.80
2018-07-13T22:07:53.941Z,56.67
2018-07-13T22:10:23.257Z,71.07
2018-07-13T22:12:52.481Z,74.40
2018-07-13T22:15:21.652Z,68.60
2018-07-13T22:17:50.824Z,38.03
2018-07-13T22:20:20.061Z,17.70
2018-07-13T22:22:49.230Z,26.23
2018-07-13T22:25:18.401Z,22.90
2018-07-13T22:27:47.558Z,22.33
2018-07-13T22:30:16.732Z,22.57
2018-07-13T22:32:45.914Z,19.53
2018-07-13T22:35:15.092Z,14.03
2018-07-13T22:37:44.294Z,13.83
2018-07-13T22:40:13.517Z,27.10
2018-07-13T22:42:42.649Z,27.40
2018-07-13T22:45:11.805Z,31.33
2018-07-13T22:47:41.013Z,29.80
2018-07-13T22:50:10.200Z,27.00
2018-07-13T22:52:39.377Z,26.43
2018-07-13T22:55:08.579Z,26.93
2018-07-13T22:57:37.752Z,32.43
2018-07-13T23:00:07.498Z,30.97
2018-07-13T23:02:36.733Z,28.13
2018-07-13T23:05:06.015Z,26.30
2018-07-13T23:07:35.180Z,22.13
2018-07-13T23:10:04.401Z,38.20
2018-07-13T23:12:33.585Z,27.90
2018-07-13T23:15:02.769Z,33.03
2018-07-13T23:17:31.929Z,33.87
2018-07-13T23:20:01.134Z,32.87
2018-07-13T23:22:30.296Z,30.47
2018-07-13T23:24:59.476Z,25.57
2018-07-13T23:27:28.734Z,22.93
2018-07-13T23:29:57.952Z,19.33
2018-07-13T23:32:27.229Z,19.97
2018-07-13T23:34:56.392Z,21.83
2018-07-13T23:37:25.565Z,25.80
2018-07-13T23:39:54.731Z,19.30
2018-07-13T23:42:23.905Z,17.80
2018-07-13T23:44:53.085Z,29.57
2018-07-13T23:47:22.251Z,19.83
2018-07-13T23:49:51.400Z,17.00
2018-07-13T23:52:20.564Z,21.50
2018-07-13T23:54:49.732Z,23.73
2018-07-13T23:57:18.897Z,20.60
2018-07-13T23:59:48.083Z,19.30
